Santa Rosa, Argentina
Current Conditions -  °F | °C
As of 9:00 AM on Thursday 23 Oct 2014 (Local Time) from SAME Reporting Station
Clear Clear  
Wind Chill: 73°   Ceiling: Unl
Heat Index: 73°   Visibility: 6mi
Dew Point: 52°   Wind: 8mph
Humidity: 47%   Direction: 160°SSE
Pressure: 30"   Gusts: NA
Location:  33.25°S, 68.15°W
Report Text: SAME 231200Z 16007KT CAVOK 23/11 Q1016
Loading
Personal Weather Stations






























Interactive Weather Map
Tropical Storm Tracking
New forecast layout! Learn more

10-Day Weather Forecast

Advertisements
Track Severe Weather on mobile